AEO weather

Aioun el Atrouss Airport
Aioun El Atrouss, Hodh el Charbi Region, Mauritania

Public forecast

Using degrees Celsius for public forecast. Weather courtesy of forecast.io.

METAR (pilot weather report)

Report is more than 2 hours old.

Closest report is Nioro du Sahel Airport, 88.5 nm (163.9 km) S. Retrieved 2019/09/23 09:00 UTC (2 hours ago):

GANR 230900Z 26004KT CAVOK 30/25 Q1015

TAF (pilot weather forecast)

Forecast is more than 12 hours old.

Closest forecast is Nouakchott International Airport, 371.0 nm (687.1 km) WNW. Retrieved 2016/06/26 18:52 UTC (3 years ago):

TAF GQNN 261700Z 2618/2800 28010KT 6000 NSC BECMG 2619/2621 BKN008 PROB40 TEMPO 2704/2708 4000 BR BECMG 2709/2711 FEW010